Alpena County Regional Airport
KAPN : now visible

Airfield :











YOU CAN JOIN US ON...

 
LOGIN :

Register | Disclaimer

   EN    FR    IT 

 









Legend :    VFR   Marginal VFR   IFR   Intensive IFR   Very Intensive IFR
Visi :
Ceiling :
>= 8 km
>= 3000ft
5 to 8 km
1000 to 3000 ft
1500m to 5 km
500 to 1000 ft
800 to 1500m
200 to 500 ft
< 800m
< 200 ft
Symbols :   Thunderstorms  Fog  Heavy snow  Heavy precipitations  Wind > 20 kt






- Airport Elevation : 690 ft
- IATA code : APN


KAPN - Alpena County Regional

CURRENT METAR :
  • 230606Z AUTO 27006G15KT 10SM OVC029 M09/M13 A3014 RMK AO2 T10891133

EXPIRED METARs :
  • 230554Z AUTO 28009G16KT 10SM OVC031 M09/M13 A3014 RMK AO2 SLP221 T10891133 11083 21089 51015
  • 230454Z AUTO 29006G20KT 10SM OVC031 M08/M14 A3013 RMK AO2 SLP216 T10831144 410281089
  • 230354Z AUTO 28010G17KT 10SM OVC032 M09/M14 A3011 RMK AO2 SLP212 T10891139

TAF KAPN
Valid from the 23 at 06:00 until the 24 at 06:00 UTC


230534Z 2306/2406 28010KT P6SM OVC035
TEMPO 2306/2310 OVC030
FM231000 30006KT P6SM BKN035
FM231700 26005KT P6SM BKN030
FM240100 VRB04KT P6SM BKN030
KZMP FIR / North America



MET'MAP, your aeronautical weather chart ! - Copyright ORBIFLY December 2007 - Disclaimer

ORBIFLY MET'MAP TEAM :

Programming & Development : Alexandra Zaïnal
Concept & original design : Baudouin d'Aumeries
Assistance for programming : Marc-Olivier Méhu
Technical & hardware support : Manuel Goepfert

Contact : metmap@orbifly.com




SOURCES & CREDITS :

   NOAA       Earth
Advisory